Current Weather

Merced Rgnl/Macready Fld

Merced, California (KMCE)

Report from: Monday, August 15, 2022 5:53 PM PDT
Current time: Monday, August 15, 2022 6:12 PM PDT

Nearby weather
Weather history
Weather forecast

Temperature37.8°C (100.0°F)
Heat index35.6°C (96.0°F)
Dew point7.2°C (45.0°F)
Winds 10 kts (5.1 m/s, 11.5 mph) North-Northwest (340°)
Visibility10 mi. (16.1 km)
Clouds Sky clear
Altimeter29.74 in.Hg (1007 mB)
Relative humidity16 %
Density altitude2,927 ft. (892 m)
Sea-level pressure100.7 kPa (1007 mB, 29.73 in.Hg)
Remarks Fully automated report
Automated weather observing station with precipitation discriminator
Flight conditions Visual Meteorological Conditions
Raw dataKMCE 160053Z AUTO 34010KT 10SM CLR 38/07 A2974 RMK AO2 SLP069 T03780072
An error has occurred. This application may no longer respond until reloaded. Reload 🗙